createdAt,value
2023-01-27T05:06:21.664Z,20.63
2023-01-27T05:08:49.438Z,20.40
2023-01-27T05:11:17.169Z,21.55
2023-01-27T05:13:44.843Z,20.55
2023-01-27T05:16:21.225Z,23.25
2023-01-27T05:18:50.750Z,22.15
2023-01-27T05:21:21.764Z,21.85
2023-01-27T05:23:49.979Z,21.80
2023-01-27T05:26:19.444Z,20.65
2023-01-27T05:28:48.408Z,18.98
2023-01-27T05:31:24.235Z,20.92
2023-01-27T05:33:54.879Z,21.08
2023-01-27T05:36:24.998Z,18.85
2023-01-27T05:38:53.530Z,19.33
2023-01-27T05:41:22.083Z,18.73
2023-01-27T05:43:54.963Z,19.90
2023-01-27T05:46:27.911Z,18.40
2023-01-27T05:48:57.463Z,19.85
2023-01-27T05:51:26.585Z,18.52
2023-01-27T05:53:55.768Z,18.92
2023-01-27T05:56:23.578Z,25.00
2023-01-27T05:58:50.892Z,28.65
2023-01-27T06:01:19.432Z,20.13
2023-01-27T06:03:48.059Z,19.77
2023-01-27T06:06:20.388Z,19.52
2023-01-27T06:08:48.015Z,18.95
2023-01-27T06:11:16.696Z,21.75
2023-01-27T06:13:46.250Z,18.73
2023-01-27T06:16:17.946Z,18.45
2023-01-27T06:18:46.281Z,16.42
2023-01-27T06:21:15.430Z,18.65
2023-01-27T06:23:43.440Z,18.45
2023-01-27T06:26:17.719Z,18.65
2023-01-27T06:28:45.211Z,18.35
2023-01-27T06:31:22.150Z,20.00
2023-01-27T06:33:51.193Z,18.00
2023-01-27T06:36:21.339Z,19.30
2023-01-27T06:38:49.516Z,19.70
2023-01-27T06:41:16.911Z,19.30
2023-01-27T06:43:44.237Z,17.70
2023-01-27T06:46:12.340Z,16.70
2023-01-27T06:48:39.749Z,18.10
2023-01-27T06:51:07.206Z,17.85
2023-01-27T06:53:37.099Z,18.98
2023-01-27T06:56:05.015Z,19.45
2023-01-27T06:58:33.040Z,19.70
2023-01-27T07:01:00.611Z,20.20
2023-01-27T07:03:27.928Z,19.30
2023-01-27T07:05:56.098Z,19.05
2023-01-27T07:08:23.440Z,19.30
2023-01-27T07:10:50.843Z,19.33
2023-01-27T07:13:21.556Z,18.02
2023-01-27T07:15:55.042Z,17.45
2023-01-27T07:18:23.177Z,17.30
2023-01-27T07:20:50.901Z,17.08
2023-01-27T07:23:18.175Z,18.67
2023-01-27T07:25:45.865Z,17.02
2023-01-27T07:28:13.310Z,16.88
2023-01-27T07:30:40.570Z,16.25
2023-01-27T07:33:10.582Z,16.45
2023-01-27T07:35:38.760Z,16.13
2023-01-27T07:38:06.912Z,16.30
2023-01-27T07:40:36.117Z,16.25
2023-01-27T07:43:04.028Z,16.63
2023-01-27T07:45:34.932Z,16.40
2023-01-27T07:48:04.343Z,17.55
2023-01-27T07:50:32.623Z,16.08
2023-01-27T07:53:01.739Z,15.30
2023-01-27T07:55:30.398Z,15.75
2023-01-27T07:57:57.988Z,16.75
2023-01-27T08:00:26.157Z,16.27
2023-01-27T08:02:55.449Z,15.32
2023-01-27T08:05:23.635Z,15.25
2023-01-27T08:07:51.831Z,16.25
2023-01-27T08:10:19.254Z,15.18
2023-01-27T08:12:47.299Z,15.02
2023-01-27T08:15:18.744Z,17.00
2023-01-27T08:17:56.087Z,17.77
2023-01-27T08:20:25.205Z,21.02
2023-01-27T08:22:53.048Z,22.15
2023-01-27T08:25:21.729Z,22.42
2023-01-27T08:27:53.359Z,15.60
2023-01-27T08:30:21.930Z,14.82
2023-01-27T08:32:49.395Z,14.52
2023-01-27T08:35:16.941Z,14.43
2023-01-27T08:37:48.214Z,14.57
2023-01-27T08:40:16.577Z,15.27
2023-01-27T08:42:44.248Z,14.82
2023-01-27T08:45:12.047Z,14.20
2023-01-27T08:47:39.705Z,14.00
2023-01-27T08:50:10.595Z,13.57
2023-01-27T08:52:38.332Z,13.77
2023-01-27T08:55:06.481Z,13.57
2023-01-27T08:57:36.407Z,12.95
2023-01-27T09:00:06.564Z,16.92
2023-01-27T09:02:34.663Z,20.52
2023-01-27T09:05:02.344Z,18.02
2023-01-27T09:07:30.151Z,15.70
2023-01-27T09:10:12.745Z,15.07
2023-01-27T09:12:45.376Z,14.18
2023-01-27T09:15:13.872Z,12.95
2023-01-27T09:17:41.698Z,13.63
2023-01-27T09:20:12.045Z,13.80
2023-01-27T09:22:40.954Z,13.68
2023-01-27T09:25:11.998Z,13.10
2023-01-27T09:27:40.250Z,14.17
2023-01-27T09:30:10.245Z,14.85
2023-01-27T09:32:38.564Z,13.07
2023-01-27T09:35:06.373Z,12.98
2023-01-27T09:37:39.577Z,15.07
2023-01-27T09:40:18.592Z,16.65
2023-01-27T09:42:58.214Z,15.65
2023-01-27T09:45:49.993Z,15.63
2023-01-27T09:48:46.869Z,14.80
2023-01-27T09:51:20.139Z,13.15
2023-01-27T09:54:20.114Z,15.13
2023-01-27T09:57:18.299Z,29.52
2023-01-27T09:59:54.532Z,15.70
2023-01-27T10:02:35.673Z,11.85
2023-01-27T10:05:20.896Z,18.80
2023-01-27T10:08:05.181Z,30.02
2023-01-27T10:10:52.454Z,23.83
2023-01-27T10:13:25.771Z,12.82
2023-01-27T10:16:26.313Z,15.02
2023-01-27T10:19:22.096Z,20.45
2023-01-27T10:22:11.580Z,13.55
2023-01-27T10:25:08.047Z,14.98
2023-01-27T10:27:44.287Z,25.38
2023-01-27T10:30:35.216Z,13.35
2023-01-27T10:33:39.744Z,12.57
2023-01-27T10:36:18.485Z,13.95
2023-01-27T10:38:53.827Z,16.63
2023-01-27T10:41:50.538Z,11.98
2023-01-27T10:44:27.070Z,11.77
2023-01-27T10:47:33.102Z,12.93
2023-01-27T10:50:06.727Z,13.30
2023-01-27T10:52:42.612Z,11.95
2023-01-27T10:55:36.408Z,11.82
2023-01-27T10:58:10.828Z,16.38
2023-01-27T11:01:13.226Z,12.90
2023-01-27T11:03:47.510Z,10.57
2023-01-27T11:06:19.693Z,11.65
2023-01-27T11:08:52.550Z,13.98
2023-01-27T11:11:46.439Z,12.13
2023-01-27T11:14:22.772Z,10.80
2023-01-27T11:17:12.672Z,11.50
2023-01-27T11:20:01.170Z,11.48
2023-01-27T11:22:38.747Z,12.32
2023-01-27T11:25:14.177Z,12.77
2023-01-27T11:28:06.469Z,11.55
2023-01-27T11:30:40.075Z,11.40
2023-01-27T11:33:23.242Z,9.93
2023-01-27T11:35:53.654Z,9.32
2023-01-27T11:38:23.221Z,10.68
2023-01-27T11:40:53.011Z,11.45
2023-01-27T11:43:25.913Z,12.20
2023-01-27T11:46:01.113Z,14.55
2023-01-27T11:48:46.217Z,11.45
2023-01-27T11:51:21.479Z,9.30
2023-01-27T11:53:58.772Z,9.45
2023-01-27T11:56:27.245Z,10.35
2023-01-27T11:59:13.697Z,10.45
2023-01-27T12:01:48.265Z,10.70
2023-01-27T12:04:24.269Z,10.63
2023-01-27T12:07:01.453Z,10.88
2023-01-27T12:09:37.666Z,10.43
2023-01-27T12:12:13.897Z,11.15
2023-01-27T12:14:55.614Z,10.52
2023-01-27T12:17:40.192Z,14.55
2023-01-27T12:20:35.507Z,7.68
2023-01-27T12:23:16.164Z,7.93
2023-01-27T12:25:53.366Z,9.63
2023-01-27T12:28:34.710Z,9.38
2023-01-27T12:31:24.937Z,8.32
2023-01-27T12:34:08.204Z,9.15
2023-01-27T12:36:44.581Z,8.60
2023-01-27T12:39:29.423Z,10.63
2023-01-27T12:41:57.289Z,10.20
2023-01-27T12:44:27.217Z,16.67
2023-01-27T12:46:57.909Z,12.68
2023-01-27T12:49:31.845Z,11.52
2023-01-27T12:52:03.818Z,9.43
2023-01-27T12:57:05.932Z,9.05
2023-01-27T12:59:34.116Z,9.73
2023-01-27T13:02:25.028Z,7.88
2023-01-27T13:04:57.590Z,10.50
2023-01-27T13:07:29.625Z,11.77
2023-01-27T13:10:04.515Z,8.68
2023-01-27T13:12:48.022Z,10.07
2023-01-27T13:15:19.317Z,9.88
2023-01-27T13:17:48.438Z,10.35
2023-01-27T13:20:19.154Z,9.10
2023-01-27T13:22:51.519Z,9.68
2023-01-27T13:25:23.132Z,8.82
2023-01-27T13:27:54.845Z,8.73
2023-01-27T13:30:37.680Z,9.90
2023-01-27T13:33:32.453Z,8.65
2023-01-27T13:36:12.645Z,9.77
2023-01-27T13:38:57.524Z,11.68
2023-01-27T13:41:35.080Z,11.73
2023-01-27T13:44:26.689Z,10.27
2023-01-27T13:47:01.245Z,10.55
2023-01-27T13:49:38.140Z,12.52
2023-01-27T13:52:06.859Z,9.35
2023-01-27T13:54:34.333Z,9.02
2023-01-27T13:57:28.281Z,9.38
2023-01-27T14:00:28.171Z,8.93
2023-01-27T14:03:26.543Z,12.98
2023-01-27T14:06:06.865Z,16.13
2023-01-27T14:08:53.623Z,28.90
2023-01-27T14:11:41.769Z,18.23
2023-01-27T14:14:19.059Z,12.43
2023-01-27T14:17:30.756Z,16.15
2023-01-27T14:20:24.821Z,18.87
2023-01-27T14:23:09.524Z,18.00
2023-01-27T14:26:15.958Z,17.73
2023-01-27T14:29:17.300Z,12.18
2023-01-27T14:31:52.503Z,9.90
2023-01-27T14:34:46.872Z,12.90
2023-01-27T14:37:26.189Z,10.88
2023-01-27T14:40:17.973Z,9.32
2023-01-27T14:43:03.668Z,15.40
2023-01-27T14:45:47.826Z,12.68
2023-01-27T14:48:34.817Z,19.85
2023-01-27T14:51:16.241Z,12.55
2023-01-27T14:54:17.101Z,9.20
2023-01-27T14:56:56.523Z,8.68
2023-01-27T14:59:29.658Z,9.00
2023-01-27T15:02:27.372Z,10.00
2023-01-27T15:05:20.325Z,11.15
2023-01-27T15:08:21.288Z,12.13
2023-01-27T15:11:17.620Z,11.90
2023-01-27T15:13:55.353Z,10.07
2023-01-27T15:16:45.867Z,9.35
2023-01-27T15:19:27.522Z,9.30
2023-01-27T15:22:13.116Z,9.07
2023-01-27T15:24:57.337Z,12.15
2023-01-27T15:27:26.496Z,12.00
2023-01-27T15:29:54.450Z,11.85
2023-01-27T15:32:22.394Z,11.68
2023-01-27T15:34:53.265Z,10.05
2023-01-27T15:37:24.188Z,9.63
2023-01-27T15:40:16.925Z,9.32
2023-01-27T15:42:54.063Z,9.80
2023-01-27T15:45:45.093Z,10.32
2023-01-27T15:48:22.318Z,9.75
2023-01-27T15:51:16.698Z,9.88
2023-01-27T15:53:57.908Z,9.80
2023-01-27T15:56:43.744Z,11.73
2023-01-27T15:59:22.334Z,12.60
2023-01-27T16:01:59.896Z,13.20
2023-01-27T16:04:32.178Z,15.52
2023-01-27T16:07:03.673Z,14.40
2023-01-27T16:09:34.664Z,11.85
2023-01-27T16:12:28.723Z,12.53
2023-01-27T16:15:21.634Z,14.30
2023-01-27T16:18:07.193Z,15.85
2023-01-27T16:20:42.871Z,18.55
2023-01-27T16:23:43.006Z,14.88
2023-01-27T16:26:30.339Z,12.73
2023-01-27T16:29:26.322Z,11.48
2023-01-27T16:32:00.568Z,10.32
2023-01-27T16:34:41.096Z,13.43
2023-01-27T16:37:25.752Z,10.85
2023-01-27T16:40:09.220Z,10.48
2023-01-27T16:42:44.637Z,10.27
2023-01-27T16:45:20.792Z,10.10
2023-01-27T16:48:00.074Z,10.43
2023-01-27T16:50:45.637Z,10.70
2023-01-27T16:53:22.556Z,9.68
2023-01-27T16:55:59.136Z,10.25
2023-01-27T16:58:39.720Z,9.68
2023-01-27T17:01:38.094Z,11.23
2023-01-27T17:04:19.105Z,11.95
2023-01-27T17:06:49.626Z,11.27
2023-01-27T17:09:26.375Z,11.65
2023-01-27T17:11:55.628Z,16.65
2023-01-27T17:14:32.864Z,12.32
2023-01-27T17:17:15.393Z,13.18
2023-01-27T17:19:47.781Z,9.90
2023-01-27T17:22:22.828Z,12.27
2023-01-27T17:24:54.384Z,13.73
2023-01-27T17:27:29.563Z,14.60
2023-01-27T17:30:08.469Z,17.55
2023-01-27T17:32:38.384Z,12.20
2023-01-27T17:35:19.275Z,14.13
2023-01-27T17:37:46.547Z,16.38
2023-01-27T17:40:17.491Z,16.35
2023-01-27T17:42:45.711Z,15.77
2023-01-27T17:45:34.241Z,12.98
2023-01-27T17:48:02.159Z,12.57
2023-01-27T17:50:40.123Z,13.48
2023-01-27T17:53:12.035Z,13.93
2023-01-27T17:58:15.294Z,14.57
2023-01-27T18:00:45.028Z,12.73
2023-01-27T18:03:23.487Z,13.57
2023-01-27T18:05:54.222Z,16.40
2023-01-27T18:08:26.359Z,15.60
2023-01-27T18:11:12.884Z,18.65
2023-01-27T18:13:41.201Z,16.80
2023-01-27T18:16:18.751Z,16.48
2023-01-27T18:18:47.493Z,16.58
2023-01-27T18:21:18.810Z,16.33
2023-01-27T18:23:57.669Z,16.95
2023-01-27T18:26:28.694Z,16.77
2023-01-27T18:29:06.096Z,14.87
2023-01-27T18:32:19.964Z,15.07
2023-01-27T18:34:49.730Z,15.70
2023-01-27T18:37:36.224Z,15.57
2023-01-27T18:40:27.819Z,15.63
2023-01-27T18:42:56.518Z,21.27
2023-01-27T18:45:25.352Z,42.00
2023-01-27T18:47:54.245Z,16.13
2023-01-27T18:50:24.092Z,15.48
2023-01-27T18:52:53.157Z,14.65
2023-01-27T18:55:26.632Z,12.57
2023-01-27T18:57:59.657Z,13.57
2023-01-27T19:00:31.370Z,13.98
2023-01-27T19:03:01.312Z,17.08
2023-01-27T19:05:32.022Z,21.48
2023-01-27T19:07:59.805Z,18.77
2023-01-27T19:10:29.792Z,16.80
2023-01-27T19:13:01.835Z,19.67
2023-01-27T19:15:33.395Z,23.38
2023-01-27T19:18:07.294Z,26.65
2023-01-27T19:20:35.534Z,24.77
2023-01-27T19:23:03.250Z,42.92
2023-01-27T19:25:31.302Z,53.67
2023-01-27T19:28:04.301Z,42.15
2023-01-27T19:30:37.166Z,21.13
2023-01-27T19:33:15.805Z,17.08
2023-01-27T19:35:46.613Z,14.80
2023-01-27T19:38:14.481Z,14.90
2023-01-27T19:40:42.876Z,14.70
2023-01-27T19:43:14.560Z,15.50
2023-01-27T19:45:44.557Z,14.70
2023-01-27T19:48:18.345Z,15.25
2023-01-27T19:50:46.741Z,14.10
2023-01-27T19:53:15.826Z,15.05
2023-01-27T19:55:43.552Z,15.45
2023-01-27T19:58:23.049Z,22.52
2023-01-27T20:00:51.336Z,17.45
2023-01-27T20:03:19.311Z,15.02
2023-01-27T20:05:47.036Z,15.60
2023-01-27T20:08:20.056Z,16.67
2023-01-27T20:10:47.875Z,15.20
2023-01-27T20:13:18.255Z,16.25
2023-01-27T20:15:47.393Z,17.02
2023-01-27T20:18:16.947Z,18.02
2023-01-27T20:20:45.480Z,18.50
2023-01-27T20:23:15.063Z,17.98
2023-01-27T20:25:42.750Z,17.75
2023-01-27T20:28:10.826Z,18.77
2023-01-27T20:30:38.991Z,20.08
2023-01-27T20:33:06.394Z,18.77
2023-01-27T20:35:33.964Z,19.90
2023-01-27T20:38:02.687Z,19.13
2023-01-27T20:40:32.238Z,19.38
2023-01-27T20:43:00.803Z,19.88
2023-01-27T20:45:28.163Z,20.33
2023-01-27T20:47:56.125Z,19.52
2023-01-27T20:50:26.099Z,19.10
2023-01-27T20:52:53.657Z,18.98
2023-01-27T20:55:21.088Z,20.48
2023-01-27T20:57:48.838Z,18.88
2023-01-27T21:00:21.015Z,21.00
2023-01-27T21:02:49.408Z,21.27
2023-01-27T21:05:17.189Z,21.27
2023-01-27T21:07:45.375Z,22.55
2023-01-27T21:10:12.764Z,22.83
2023-01-27T21:12:40.529Z,22.55
2023-01-27T21:15:09.845Z,22.33
2023-01-27T21:17:37.621Z,22.33
2023-01-27T21:20:06.525Z,21.33
2023-01-27T21:22:34.556Z,22.13
2023-01-27T21:25:02.850Z,21.63
2023-01-27T21:27:30.318Z,23.67
2023-01-27T21:29:57.671Z,20.48
2023-01-27T21:32:25.560Z,24.20
2023-01-27T21:34:52.947Z,21.58
2023-01-27T21:37:21.222Z,29.05
2023-01-27T21:39:48.555Z,35.53
2023-01-27T21:42:18.751Z,34.22
2023-01-27T21:45:05.264Z,45.85
2023-01-27T21:47:32.617Z,44.15
2023-01-27T21:50:03.982Z,71.53
2023-01-27T21:52:31.665Z,33.00
2023-01-27T21:54:59.755Z,29.55
2023-01-27T21:57:27.661Z,34.97
2023-01-27T21:59:54.923Z,33.75
